Time;durP1;ratioP1;P1;durP2;ratioP2;P2;SDS_P1;SDS_P2;PMS_P1;PMS_P2;Temp;Humidity;BMP_temperature;BMP_pressure;BME280_temperature;BME280_humidity;BME280_pressure;Samples;Min_cycle;Max_cycle;Signal;HPM_P1;HPM_P2
2023/05/03 00:02:25;;;;;;;6.57;2.80;;;;;;;8.48;74.74;102785.91;5058102;28;20049;-64
2023/05/03 00:04:53;;;;;;;7.68;2.60;;;;;;;8.42;74.75;102785.88;5068572;28;20041;-62
2023/05/03 00:07:21;;;;;;;10.48;2.83;;;;;;;8.38;75.26;102788.16;5067284;28;20489;-63
2023/05/03 00:09:49;;;;;;;8.05;2.50;;;;;;;8.20;75.79;102785.16;5058917;28;20052;-62
2023/05/03 00:12:17;;;;;;;8.38;2.90;;;;;;;8.16;76.32;102783.94;5070024;28;20049;-61
2023/05/03 00:14:45;;;;;;;5.93;2.58;;;;;;;8.09;77.19;102792.88;5047821;28;20056;-65
2023/05/03 00:17:13;;;;;;;5.55;2.40;;;;;;;8.12;76.58;102788.91;5077758;28;20060;-65
2023/05/03 00:19:41;;;;;;;6.93;2.40;;;;;;;8.17;77.21;102782.88;5054314;28;20056;-62
2023/05/03 00:22:09;;;;;;;10.25;3.00;;;;;;;8.19;76.66;102788.94;5056673;28;20048;-62
2023/05/03 00:24:36;;;;;;;7.07;2.47;;;;;;;8.25;76.29;102785.38;5039913;28;20440;-62
2023/05/03 00:27:05;;;;;;;6.70;2.80;;;;;;;8.24;75.20;102781.00;5036800;28;20474;-62
2023/05/03 00:29:33;;;;;;;7.53;2.47;;;;;;;8.23;75.63;102779.34;5035933;28;20037;-63
2023/05/03 00:32:01;;;;;;;9.32;2.70;;;;;;;8.22;76.32;102772.22;5042683;28;20456;-62
2023/05/03 00:34:29;;;;;;;6.85;2.13;;;;;;;8.22;76.13;102783.91;5055654;28;20437;-63
2023/05/03 00:36:56;;;;;;;5.63;2.60;;;;;;;8.19;76.19;102778.91;5054958;28;20073;-61
2023/05/03 00:39:24;;;;;;;9.20;2.47;;;;;;;8.21;75.48;102776.00;5054740;28;20160;-64
2023/05/03 00:41:56;;;;;;;5.63;2.50;;;;;;;8.17;76.24;102782.88;5033935;28;20049;-62
2023/05/03 00:44:24;;;;;;;9.82;2.70;;;;;;;8.09;76.41;102784.72;5018394;28;20046;-62
2023/05/03 00:46:52;;;;;;;7.00;2.42;;;;;;;8.08;76.79;102776.78;5044891;28;20052;-63
2023/05/03 00:49:20;;;;;;;5.15;2.30;;;;;;;8.02;77.09;102783.03;5037797;28;20081;-62
2023/05/03 00:51:48;;;;;;;5.43;2.50;;;;;;;7.93;76.80;102785.06;5054516;28;20073;-62
2023/05/03 00:54:16;;;;;;;6.97;2.42;;;;;;;7.89;77.10;102790.06;5044693;28;20041;-62
2023/05/03 00:56:46;;;;;;;9.32;3.10;;;;;;;7.87;77.46;102794.88;5052073;28;20052;-63
2023/05/03 00:59:19;;;;;;;9.43;2.30;;;;;;;7.87;78.01;102786.72;5044119;28;20045;-61
2023/05/03 01:01:51;;;;;;;10.52;2.88;;;;;;;7.90;77.58;102785.47;5029697;28;20490;-61
2023/05/03 01:04:20;;;;;;;7.03;2.40;;;;;;;7.95;77.63;102784.88;5017978;28;20088;-63
2023/05/03 01:07:04;;;;;;;10.57;2.88;;;;;;;7.92;77.39;102788.84;5048979;28;20045;-63
2023/05/03 01:09:59;;;;;;;7.13;2.53;;;;;;;7.83;77.84;102787.31;5071243;28;20051;-61
2023/05/03 01:12:43;;;;;;;7.05;2.63;;;;;;;7.75;78.57;102782.06;5054077;28;20041;-60
2023/05/03 01:15:20;;;;;;;6.70;2.50;;;;;;;7.86;78.78;102778.78;5035445;28;20552;-64
2023/05/03 01:17:50;;;;;;;5.82;2.40;;;;;;;7.89;78.25;102781.94;5036004;28;20107;-62
2023/05/03 01:20:25;;;;;;;6.28;2.70;;;;;;;7.83;77.86;102779.19;5008001;28;20073;-62
2023/05/03 01:22:58;;;;;;;4.15;2.38;;;;;;;7.87;78.18;102775.03;5033849;28;20053;-63
2023/05/03 01:25:26;;;;;;;7.82;2.65;;;;;;;7.94;78.30;102781.34;5050959;28;20056;-62
2023/05/03 01:27:54;;;;;;;6.88;2.83;;;;;;;7.88;77.82;102782.13;5033900;28;20061;-62
2023/05/03 01:30:24;;;;;;;10.32;2.80;;;;;;;7.83;78.20;102787.31;5045374;28;20041;-62
2023/05/03 01:33:07;;;;;;;7.32;3.08;;;;;;;7.73;78.60;102790.41;5033736;28;20053;-62
2023/05/03 01:36:01;;;;;;;8.55;3.30;;;;;;;7.73;79.07;102800.44;5034356;28;20387;-63
2023/05/03 01:38:33;;;;;;;5.77;2.60;;;;;;;7.76;79.54;102790.00;5033795;28;20056;-62
2023/05/03 01:41:04;;;;;;;7.07;2.75;;;;;;;7.83;78.62;102782.72;5033289;28;20065;-62
2023/05/03 01:43:33;;;;;;;8.73;2.78;;;;;;;7.79;78.25;102789.63;5042558;28;20044;-62
2023/05/03 01:46:01;;;;;;;9.38;2.83;;;;;;;7.56;79.60;102789.88;5036107;28;20386;-62
2023/05/03 01:48:29;;;;;;;7.95;2.67;;;;;;;7.44;80.74;102789.59;5054391;28;20409;-62
2023/05/03 01:50:57;;;;;;;9.05;2.75;;;;;;;7.36;81.13;102788.91;5032995;28;20073;-62
2023/05/03 01:53:24;;;;;;;8.35;3.13;;;;;;;7.33;81.45;102789.31;5033548;28;20041;-62
2023/05/03 01:55:52;;;;;;;8.10;2.80;;;;;;;7.44;81.13;102794.19;5053516;28;20070;-64
2023/05/03 01:58:20;;;;;;;6.15;2.53;;;;;;;7.50;80.53;102789.84;5073418;28;20481;-62
2023/05/03 02:00:48;;;;;;;6.68;2.40;;;;;;;7.49;80.47;102799.03;5016269;28;20490;-64
2023/05/03 02:03:16;;;;;;;8.43;2.63;;;;;;;7.46;80.32;102795.66;5016970;28;20069;-62
2023/05/03 02:05:45;;;;;;;5.05;2.53;;;;;;;7.51;79.95;102792.38;5049433;28;20053;-62
2023/05/03 02:08:13;;;;;;;6.40;2.30;;;;;;;7.54;79.33;102796.56;5033990;28;20053;-62
2023/05/03 02:10:43;;;;;;;8.90;2.55;;;;;;;7.52;78.90;102794.03;5033084;28;20093;-61
2023/05/03 02:13:11;;;;;;;6.68;2.53;;;;;;;7.47;79.80;102791.91;5052921;28;20544;-62
2023/05/03 02:15:38;;;;;;;7.72;2.70;;;;;;;7.52;79.66;102787.78;5052779;28;20520;-61
2023/05/03 02:18:07;;;;;;;7.70;2.35;;;;;;;7.51;79.91;102789.66;5036440;28;20136;-61
2023/05/03 02:20:36;;;;;;;6.50;2.63;;;;;;;7.54;79.09;102789.25;5055418;28;20550;-62
2023/05/03 02:23:04;;;;;;;7.50;2.40;;;;;;;7.46;79.14;102789.41;5054315;28;20049;-63
2023/05/03 02:25:32;;;;;;;8.50;2.63;;;;;;;7.37;79.94;102790.59;5038887;28;20049;-61
2023/05/03 02:28:00;;;;;;;6.10;2.50;;;;;;;7.32;80.45;102783.06;5047033;28;20107;-61
2023/05/03 02:30:28;;;;;;;7.10;2.72;;;;;;;7.40;79.76;102779.34;5045204;28;20057;-64
2023/05/03 02:32:56;;;;;;;8.15;2.47;;;;;;;7.43;80.34;102784.38;5034151;28;20497;-62
2023/05/03 02:35:24;;;;;;;6.40;2.60;;;;;;;7.47;79.94;102777.53;5055411;28;20049;-62
2023/05/03 02:37:51;;;;;;;5.05;2.55;;;;;;;7.46;79.08;102781.28;5053185;28;20075;-63
2023/05/03 02:40:20;;;;;;;6.30;2.40;;;;;;;7.43;79.78;102773.53;5052437;28;20095;-64
2023/05/03 02:42:48;;;;;;;5.70;2.30;;;;;;;7.45;80.27;102766.03;5050699;28;20049;-63
2023/05/03 02:45:23;;;;;;;5.15;2.40;;;;;;;7.46;79.63;102763.13;5043602;28;20088;-62
2023/05/03 02:47:51;;;;;;;6.82;2.40;;;;;;;7.39;80.07;102756.00;5016601;28;20051;-62
2023/05/03 02:50:19;;;;;;;5.93;2.50;;;;;;;7.31;79.47;102753.41;5026103;28;20042;-61
2023/05/03 02:52:46;;;;;;;9.00;2.58;;;;;;;7.30;79.75;102749.03;5033070;28;20057;-63
2023/05/03 02:55:15;;;;;;;8.60;2.65;;;;;;;7.29;80.36;102744.63;5049097;28;20098;-62
2023/05/03 02:57:45;;;;;;;6.68;2.58;;;;;;;7.28;80.72;102735.66;5055026;28;20446;-61
2023/05/03 03:00:16;;;;;;;7.95;2.95;;;;;;;7.25;80.73;102733.38;5057295;28;20048;-62
2023/05/03 03:02:44;;;;;;;6.15;2.50;;;;;;;7.25;81.04;102733.38;5055872;28;20119;-63
2023/05/03 03:05:12;;;;;;;5.53;2.60;;;;;;;7.25;81.38;102728.78;5036082;28;20106;-62
2023/05/03 03:07:45;;;;;;;8.20;3.15;;;;;;;7.24;81.32;102720.88;5039364;28;20136;-62
2023/05/03 03:10:13;;;;;;;9.18;2.70;;;;;;;7.19;81.50;102721.47;5032242;28;20060;-63
2023/05/03 03:12:41;;;;;;;9.15;3.00;;;;;;;7.09;81.45;102734.50;5048103;28;20087;-62
2023/05/03 03:15:12;;;;;;;7.32;2.75;;;;;;;7.00;82.62;102730.28;5036427;28;20049;-62
2023/05/03 03:17:40;;;;;;;6.57;2.50;;;;;;;7.06;82.62;102740.31;5052060;28;20073;-61
2023/05/03 03:20:10;;;;;;;7.30;2.67;;;;;;;7.11;82.42;102747.88;5050925;28;20048;-61
2023/05/03 03:22:42;;;;;;;9.05;2.70;;;;;;;7.12;82.28;102750.38;5050821;28;20055;-62
2023/05/03 03:25:10;;;;;;;7.22;2.75;;;;;;;7.05;81.86;102754.91;5053625;28;20103;-62
2023/05/03 03:27:40;;;;;;;8.13;3.05;;;;;;;7.01;82.31;102750.91;5035693;28;20040;-62
2023/05/03 03:30:10;;;;;;;5.57;2.50;;;;;;;6.90;82.87;102756.88;5035519;28;20044;-62
2023/05/03 03:32:47;;;;;;;9.63;3.13;;;;;;;6.87;83.48;102754.56;5050431;28;20055;-64
2023/05/03 03:35:23;;;;;;;9.20;2.93;;;;;;;6.88;84.13;102753.50;5035715;28;20622;-64
2023/05/03 03:37:51;;;;;;;6.38;2.60;;;;;;;6.92;83.06;102757.50;5053183;28;20076;-62
2023/05/03 03:40:19;;;;;;;8.10;3.00;;;;;;;6.93;83.59;102761.91;5071742;28;20044;-61
2023/05/03 03:42:50;;;;;;;8.57;3.08;;;;;;;6.91;83.30;102758.56;5062369;28;20044;-60
2023/05/03 03:45:18;;;;;;;8.88;3.15;;;;;;;6.89;83.39;102760.63;5052023;28;20049;-62
2023/05/03 03:47:45;;;;;;;8.05;2.70;;;;;;;6.81;83.55;102754.31;5051771;28;20049;-63
2023/05/03 03:50:14;;;;;;;6.05;2.95;;;;;;;6.74;83.94;102753.41;5052157;28;20067;-63
2023/05/03 03:52:41;;;;;;;7.15;2.75;;;;;;;6.70;84.20;102749.41;5051638;28;20056;-63
2023/05/03 03:55:10;;;;;;;8.40;2.97;;;;;;;6.74;84.64;102756.13;5051728;28;20049;-63
2023/05/03 03:57:38;;;;;;;6.45;2.63;;;;;;;6.82;84.05;102742.44;5059009;28;20059;-61
2023/05/03 04:00:09;;;;;;;7.00;2.88;;;;;;;6.88;83.52;102748.94;5075629;28;20385;-62
2023/05/03 04:02:39;;;;;;;7.28;3.00;;;;;;;6.86;82.85;102742.06;5034898;28;20456;-61
2023/05/03 04:05:15;;;;;;;7.68;2.67;;;;;;;6.79;83.19;102739.28;5049784;28;20053;-63
2023/05/03 04:07:45;;;;;;;8.63;2.88;;;;;;;6.75;83.80;102744.25;5051095;28;20044;-64
2023/05/03 04:10:14;;;;;;;8.63;3.00;;;;;;;6.74;83.56;102753.41;5045260;28;20050;-64
2023/05/03 04:12:43;;;;;;;8.05;2.85;;;;;;;6.67;83.96;102759.81;5053539;28;20045;-63
2023/05/03 04:15:13;;;;;;;6.97;2.80;;;;;;;6.63;84.37;102759.34;5045610;28;20424;-62
2023/05/03 04:17:43;;;;;;;5.93;2.60;;;;;;;6.64;84.26;102763.75;5031290;28;20041;-64
2023/05/03 04:20:12;;;;;;;5.93;3.13;;;;;;;6.58;84.13;102765.34;5066588;28;20079;-63
2023/05/03 04:22:44;;;;;;;8.13;2.78;;;;;;;6.58;84.84;102767.22;5068205;28;20079;-62
2023/05/03 04:25:15;;;;;;;6.15;2.78;;;;;;;6.62;85.23;102765.81;5047171;28;20049;-64
2023/05/03 04:27:47;;;;;;;8.60;3.05;;;;;;;6.62;84.30;102771.22;5058775;28;20060;-64
2023/05/03 04:30:16;;;;;;;7.68;3.00;;;;;;;6.57;84.69;102768.25;5019087;28;20125;-62
2023/05/03 04:32:48;;;;;;;9.93;3.53;;;;;;;6.54;85.54;102764.06;5024813;28;20516;-61
2023/05/03 04:35:17;;;;;;;12.18;3.10;;;;;;;6.63;85.29;102767.47;5056047;28;20059;-64
2023/05/03 04:37:47;;;;;;;7.65;3.25;;;;;;;6.68;84.20;102770.44;5054112;28;20141;-62
2023/05/03 04:40:19;;;;;;;10.45;3.28;;;;;;;6.64;84.26;102777.28;5042223;28;20055;-63
2023/05/03 04:42:56;;;;;;;;;;;;;;;6.64;84.43;102774.59;5039294;28;20083;-61
2023/05/03 04:45:24;;;;;;;9.00;3.38;;;;;;;6.62;85.20;102779.34;5063939;28;19924;-62
2023/05/03 04:47:52;;;;;;;6.63;3.03;;;;;;;6.59;85.11;102787.84;5055811;28;20049;-62
2023/05/03 04:50:20;;;;;;;8.60;2.83;;;;;;;6.58;85.80;102794.28;5054284;28;20053;-61
2023/05/03 04:52:50;;;;;;;11.23;3.47;;;;;;;6.53;85.49;102800.28;5038739;28;20059;-62
2023/05/03 04:55:20;;;;;;;9.68;3.72;;;;;;;6.46;86.48;102801.25;5030380;28;20069;-62
2023/05/03 04:57:47;;;;;;;8.57;3.08;;;;;;;6.45;86.85;102807.72;5051040;28;20076;-62
2023/05/03 05:00:16;;;;;;;9.20;3.15;;;;;;;6.44;86.81;102816.84;5050967;28;20053;-60
2023/05/03 05:02:51;;;;;;;8.63;3.30;;;;;;;6.46;87.48;102820.22;5053329;28;20095;-62
2023/05/03 05:05:20;;;;;;;6.63;3.05;;;;;;;6.53;87.12;102821.13;5034155;28;20049;-61
2023/05/03 05:07:47;;;;;;;7.18;3.05;;;;;;;6.63;86.82;102821.63;5033944;28;20050;-62
2023/05/03 05:10:18;;;;;;;9.77;3.38;;;;;;;6.55;87.07;102824.47;5035259;28;20045;-61
2023/05/03 05:12:46;;;;;;;10.10;3.45;;;;;;;6.31;87.68;102823.78;5053697;28;20102;-64
2023/05/03 05:15:14;;;;;;;8.90;3.10;;;;;;;6.17;89.23;102822.78;5021011;28;20139;-64
2023/05/03 05:17:42;;;;;;;10.80;3.38;;;;;;;6.26;90.02;102828.94;5054067;28;20133;-63
2023/05/03 05:20:12;;;;;;;11.82;3.60;;;;;;;6.28;89.70;102842.28;5070485;28;20505;-60
2023/05/03 05:22:44;;;;;;;9.55;3.25;;;;;;;6.25;89.95;102835.38;5035413;28;20120;-61
2023/05/03 05:25:12;;;;;;;9.57;3.78;;;;;;;6.29;89.73;102836.66;5034943;28;20076;-62
2023/05/03 05:27:41;;;;;;;7.95;3.60;;;;;;;6.33;89.91;102832.56;5033859;28;20050;-62
2023/05/03 05:30:09;;;;;;;10.07;3.60;;;;;;;6.36;89.21;102831.34;5036142;28;20044;-60
2023/05/03 05:32:39;;;;;;;9.65;3.60;;;;;;;6.44;89.14;102839.34;5045484;28;20071;-61
2023/05/03 05:35:10;;;;;;;11.93;4.20;;;;;;;6.53;88.93;102831.97;5033523;28;20041;-62
2023/05/03 05:37:38;;;;;;;10.63;3.78;;;;;;;6.49;89.25;102839.59;5033699;28;20158;-62
2023/05/03 05:40:08;;;;;;;10.43;3.65;;;;;;;6.57;88.86;102842.22;5033446;28;20084;-62
2023/05/03 05:42:45;;;;;;;7.47;3.47;;;;;;;6.62;88.46;102844.34;5060435;28;20053;-64
2023/05/03 05:45:13;;;;;;;10.35;3.38;;;;;;;6.62;88.75;102841.66;5036891;28;20040;-62
2023/05/03 05:47:42;;;;;;;10.52;3.42;;;;;;;6.69;88.50;102849.84;4671730;28;10000573;-62
2023/05/03 05:50:10;;;;;;;7.85;3.45;;;;;;;6.76;88.81;102838.03;5061264;28;20049;-65
2023/05/03 05:52:51;;;;;;;8.63;3.10;;;;;;;6.71;88.22;102836.91;5035469;28;20048;-64
2023/05/03 05:55:20;;;;;;;9.98;3.80;;;;;;;6.78;88.67;102838.69;5033405;28;20049;-64
2023/05/03 05:57:50;;;;;;;13.02;3.40;;;;;;;6.86;88.42;102839.59;5049455;28;20048;-62
2023/05/03 06:00:23;;;;;;;9.82;3.28;;;;;;;6.89;87.46;102839.19;5018942;28;20203;-63
2023/05/03 06:02:51;;;;;;;10.38;3.45;;;;;;;6.90;87.70;102839.00;5034120;28;20049;-64
2023/05/03 06:05:21;;;;;;;9.38;3.42;;;;;;;6.94;87.41;102843.00;5041900;28;20044;-62
2023/05/03 06:07:49;;;;;;;9.55;3.38;;;;;;;6.99;87.41;102845.13;5069150;28;20057;-64
2023/05/03 06:10:18;;;;;;;9.63;3.40;;;;;;;7.03;87.16;102843.72;5050991;28;20814;-62
2023/05/03 06:12:50;;;;;;;12.52;3.95;;;;;;;7.07;86.66;102847.72;5034653;28;20150;-63
2023/05/03 06:15:22;;;;;;;9.02;3.13;;;;;;;7.13;87.16;102844.22;5049608;28;20489;-63
2023/05/03 06:17:50;;;;;;;8.50;3.47;;;;;;;7.15;87.00;102839.44;5048140;28;20061;-63
2023/05/03 06:20:17;;;;;;;7.07;3.33;;;;;;;7.25;87.34;102839.09;5048764;28;20052;-63
2023/05/03 06:22:47;;;;;;;11.30;3.80;;;;;;;7.23;86.22;102838.47;5048374;28;20497;-66
2023/05/03 06:25:16;;;;;;;10.30;3.40;;;;;;;7.21;87.11;102830.50;5027208;28;20057;-63
2023/05/03 06:27:48;;;;;;;7.90;3.35;;;;;;;7.28;87.53;102827.03;5059078;28;20052;-62
2023/05/03 06:30:18;;;;;;;10.05;3.47;;;;;;;7.31;87.54;102822.06;5052268;28;20185;-64
2023/05/03 06:32:47;;;;;;;10.65;4.32;;;;;;;7.40;86.89;102834.41;5072409;28;20052;-62
2023/05/03 06:35:18;;;;;;;7.53;3.33;;;;;;;7.46;85.98;102828.22;5048384;28;20497;-62
2023/05/03 06:37:46;;;;;;;9.88;3.58;;;;;;;7.46;85.81;102827.38;5073798;28;20052;-62
2023/05/03 06:40:14;;;;;;;8.13;3.20;;;;;;;7.48;85.31;102825.31;5072323;28;20079;-61
2023/05/03 06:42:42;;;;;;;12.82;3.80;;;;;;;7.58;85.54;102827.69;5052850;28;20052;-61
2023/05/03 06:45:25;;;;;;;9.55;3.78;;;;;;;7.63;85.90;102817.91;5052116;28;20033;-61
2023/05/03 06:47:53;;;;;;;7.40;3.42;;;;;;;7.71;84.80;102821.50;5054964;28;20045;-61
2023/05/03 06:50:23;;;;;;;10.30;3.47;;;;;;;7.76;84.25;102821.72;5052490;28;20044;-62
2023/05/03 06:52:51;;;;;;;11.38;3.30;;;;;;;7.78;84.93;102814.22;5035727;28;20049;-64
2023/05/03 06:55:19;;;;;;;10.60;3.28;;;;;;;7.83;84.50;102811.75;5058572;28;20472;-62
2023/05/03 06:57:47;;;;;;;8.75;3.33;;;;;;;7.86;83.17;102827.63;5047034;28;20041;-62
2023/05/03 07:00:15;;;;;;;12.25;3.72;;;;;;;7.88;82.94;102814.69;5016936;28;20068;-65
2023/05/03 07:02:43;;;;;;;12.75;4.00;;;;;;;7.85;82.80;102813.22;5032474;28;20053;-62
2023/05/03 07:05:11;;;;;;;10.55;3.90;;;;;;;7.89;82.60;102811.78;5037218;28;20055;-63
2023/05/03 07:07:39;;;;;;;9.27;4.10;;;;;;;7.89;82.28;102817.22;5055422;28;20072;-61
2023/05/03 07:10:07;;;;;;;9.25;3.60;;;;;;;7.94;83.46;102811.19;5049708;28;20072;-61
2023/05/03 07:12:35;;;;;;;9.77;3.55;;;;;;;8.05;82.18;102820.63;5053760;28;20049;-60
2023/05/03 07:15:02;;;;;;;11.90;3.80;;;;;;;8.07;81.46;102818.53;5040614;28;20159;-61
2023/05/03 07:17:30;;;;;;;10.82;3.78;;;;;;;8.08;81.31;102822.91;5052440;28;20131;-62
2023/05/03 07:19:58;;;;;;;13.95;4.35;;;;;;;8.11;81.99;102823.38;5052894;28;20136;-61
2023/05/03 07:22:26;;;;;;;12.65;4.10;;;;;;;8.15;82.30;102812.09;5052864;28;20443;-62
2023/05/03 07:24:56;;;;;;;12.65;3.88;;;;;;;8.20;81.41;102821.34;5051551;28;20060;-63
2023/05/03 07:27:25;;;;;;;11.18;4.10;;;;;;;8.25;81.16;102826.13;5052416;28;20055;-61
2023/05/03 07:29:53;;;;;;;11.52;3.83;;;;;;;8.30;80.32;102818.22;5039750;28;20080;-62
2023/05/03 07:32:21;;;;;;;18.58;4.30;;;;;;;8.35;79.11;102812.19;5060726;28;20060;-60
2023/05/03 07:34:49;;;;;;;11.00;4.10;;;;;;;8.36;77.84;102822.84;5062499;28;20036;-61
2023/05/03 07:37:17;;;;;;;8.82;3.83;;;;;;;8.38;78.59;102818.03;5057314;28;20045;-61
2023/05/03 07:39:44;;;;;;;9.32;3.85;;;;;;;8.38;77.49;102814.50;5057389;28;20049;-62
2023/05/03 07:42:12;;;;;;;9.77;3.88;;;;;;;8.40;77.87;102812.44;5058507;28;20135;-63
2023/05/03 07:44:40;;;;;;;8.68;3.70;;;;;;;8.43;76.98;102807.44;5065482;28;20080;-62
2023/05/03 07:47:07;;;;;;;8.68;3.83;;;;;;;8.44;78.03;102802.81;5078031;28;20496;-63
2023/05/03 07:49:37;;;;;;;10.85;3.70;;;;;;;8.49;78.75;102798.47;5077255;28;20045;-64
2023/05/03 07:52:05;;;;;;;11.07;3.47;;;;;;;8.57;76.17;102791.16;5075831;28;20092;-63
2023/05/03 07:54:33;;;;;;;11.45;3.63;;;;;;;8.59;75.22;102789.09;5053806;28;20051;-61
2023/05/03 07:57:02;;;;;;;15.32;5.38;;;;;;;8.65;75.93;102780.09;5056648;28;20116;-61
2023/05/03 07:59:30;;;;;;;18.02;5.38;;;;;;;8.76;75.52;102781.38;5057066;28;20049;-61
2023/05/03 08:01:58;;;;;;;9.18;3.40;;;;;;;8.83;74.59;102777.63;5058030;28;20075;-64
2023/05/03 08:04:28;;;;;;;9.27;3.60;;;;;;;8.87;73.44;102778.84;5066434;28;20408;-65
2023/05/03 08:06:59;;;;;;;8.93;3.75;;;;;;;8.83;72.83;102774.91;5067855;28;20073;-64
2023/05/03 08:09:27;;;;;;;10.68;3.55;;;;;;;8.84;73.47;102768.41;5057034;28;20390;-64
2023/05/03 08:11:56;;;;;;;8.45;3.92;;;;;;;8.84;73.27;102768.41;5056114;28;20073;-65
2023/05/03 08:14:24;;;;;;;7.90;3.40;;;;;;;8.84;70.78;102764.84;5066027;28;20129;-64
2023/05/03 08:16:52;;;;;;;10.55;3.30;;;;;;;8.85;69.88;102764.66;5072506;28;20041;-63
2023/05/03 08:19:19;;;;;;;16.38;3.70;;;;;;;8.90;70.92;102772.19;5064822;28;20068;-65
2023/05/03 08:21:47;;;;;;;9.32;3.45;;;;;;;8.92;70.24;102762.78;5091590;28;20048;-64
2023/05/03 08:24:15;;;;;;;9.15;3.30;;;;;;;8.96;70.11;102764.00;5077373;28;20071;-64
2023/05/03 08:26:44;;;;;;;16.25;4.78;;;;;;;9.04;72.42;102759.41;5044775;28;20044;-64
2023/05/03 08:29:11;;;;;;;9.93;3.80;;;;;;;9.09;72.52;102757.75;5067278;28;20053;-62
2023/05/03 08:31:40;;;;;;;11.25;3.83;;;;;;;9.10;72.67;102759.41;5067337;28;20049;-65
2023/05/03 08:34:09;;;;;;;10.68;3.75;;;;;;;9.13;70.30;102769.03;5039160;28;20405;-66
2023/05/03 08:36:37;;;;;;;8.57;3.80;;;;;;;9.14;71.45;102760.66;5056311;28;20466;-65
2023/05/03 08:39:05;;;;;;;8.60;3.97;;;;;;;9.22;70.91;102761.50;5058773;28;20451;-64
2023/05/03 08:41:33;;;;;;;10.95;3.80;;;;;;;9.25;71.01;102753.75;5075904;28;20122;-65
2023/05/03 08:44:04;;;;;;;12.18;3.88;;;;;;;9.30;71.32;102758.53;5056030;28;20053;-64
2023/05/03 08:46:35;;;;;;;8.45;3.53;;;;;;;9.34;71.30;102757.09;5038903;28;20369;-65
2023/05/03 08:49:05;;;;;;;9.90;3.70;;;;;;;9.35;71.49;102756.84;5055415;28;20049;-65
2023/05/03 08:51:34;;;;;;;9.07;3.90;;;;;;;9.39;71.30;102749.94;5059366;28;20470;-65
2023/05/03 08:54:02;;;;;;;14.70;3.85;;;;;;;9.46;71.42;102747.22;5074344;28;20115;-65
2023/05/03 08:56:40;;;;;;;9.02;4.00;;;;;;;9.58;70.96;102750.13;5076106;28;20072;-65
2023/05/03 08:59:09;;;;;;;12.48;3.90;;;;;;;9.63;70.38;102744.03;5062212;28;20415;-65
2023/05/03 09:01:38;;;;;;;9.35;3.58;;;;;;;9.62;70.65;102750.50;5035959;28;20046;-66
2023/05/03 09:04:08;;;;;;;11.57;3.70;;;;;;;9.55;70.30;102748.66;5044276;28;20056;-65
2023/05/03 09:06:41;;;;;;;9.60;4.25;;;;;;;9.57;69.97;102748.44;5036058;28;20076;-65
2023/05/03 09:09:09;;;;;;;9.68;4.63;;;;;;;9.60;69.60;102753.47;5043925;28;20049;-67
2023/05/03 09:11:38;;;;;;;11.50;4.00;;;;;;;9.62;69.14;102759.53;5069940;28;20043;-66
2023/05/03 09:14:15;;;;;;;7.28;3.80;;;;;;;9.68;69.83;102763.28;5058264;28;20045;-66
2023/05/03 09:16:45;;;;;;;10.90;4.15;;;;;;;9.76;68.67;102763.84;5076054;28;20045;-65
2023/05/03 09:19:14;;;;;;;12.82;4.13;;;;;;;9.77;69.65;102765.56;5064479;28;20527;-67
2023/05/03 09:21:46;;;;;;;16.30;4.70;;;;;;;9.87;66.88;102767.00;5054614;28;20393;-65
2023/05/03 09:24:18;;;;;;;8.40;4.15;;;;;;;9.87;67.47;102764.28;5038832;28;20045;-66
2023/05/03 09:26:47;;;;;;;10.23;4.25;;;;;;;9.85;68.24;102777.25;5055440;28;20098;-65
2023/05/03 09:29:29;;;;;;;11.55;3.67;;;;;;;9.89;68.50;102767.63;5014334;28;20566;-67
2023/05/03 09:32:07;;;;;;;11.13;3.90;;;;;;;9.97;68.21;102770.09;5034999;28;20064;-62
2023/05/03 09:34:36;;;;;;;8.20;3.60;;;;;;;9.98;66.71;102766.28;5034611;28;20048;-64
2023/05/03 09:37:03;;;;;;;12.18;3.67;;;;;;;9.93;66.35;102753.34;5036181;28;20097;-64
2023/05/03 09:39:31;;;;;;;8.05;3.90;;;;;;;10.00;66.67;102758.75;5055088;28;20397;-65
2023/05/03 09:42:14;;;;;;;8.40;3.92;;;;;;;10.05;66.39;102753.47;5044064;28;20057;-64
2023/05/03 09:44:50;;;;;;;9.32;3.90;;;;;;;10.14;66.86;102764.97;5033843;28;20427;-65
2023/05/03 09:47:18;;;;;;;8.32;3.67;;;;;;;10.14;65.69;102749.47;5050278;28;20095;-65
2023/05/03 09:49:46;;;;;;;10.70;3.92;;;;;;;10.21;69.30;102744.81;5036797;28;20041;-65
2023/05/03 09:52:14;;;;;;;11.63;3.92;;;;;;;10.35;67.28;102739.31;5034681;28;20073;-65
2023/05/03 09:54:42;;;;;;;8.80;3.95;;;;;;;10.42;66.79;102742.84;5017006;28;20049;-63
2023/05/03 09:57:13;;;;;;;10.63;4.00;;;;;;;10.42;66.11;102732.78;5010180;28;20064;-65
2023/05/03 09:59:41;;;;;;;7.78;3.40;;;;;;;10.47;65.96;102736.75;5047483;28;20059;-65
2023/05/03 10:02:09;;;;;;;10.55;3.70;;;;;;;10.48;66.28;102746.56;5000123;28;20045;-66
2023/05/03 10:04:50;;;;;;;11.20;3.70;;;;;;;10.54;65.64;102738.34;5036374;28;20156;-63
2023/05/03 10:07:18;;;;;;;8.80;3.70;;;;;;;10.61;67.20;102732.88;5041428;28;20052;-65
2023/05/03 10:09:49;;;;;;;13.85;4.05;;;;;;;10.63;64.52;102736.19;5055048;28;20076;-66
2023/05/03 10:12:17;;;;;;;10.55;3.63;;;;;;;10.62;63.80;102735.34;5016788;28;20136;-63
2023/05/03 10:14:46;;;;;;;15.38;4.03;;;;;;;10.67;63.60;102737.41;5039377;28;20045;-64
2023/05/03 10:17:21;;;;;;;7.20;3.20;;;;;;;10.62;63.53;102738.06;5037023;28;20045;-65
2023/05/03 10:20:25;;;;;;;11.43;3.60;;;;;;;10.63;64.30;102742.50;5070235;28;20055;-65
2023/05/03 10:23:08;;;;;;;10.27;3.70;;;;;;;10.73;63.43;102744.72;5052464;28;20051;-63
2023/05/03 10:25:37;;;;;;;8.60;3.50;;;;;;;10.79;63.91;102737.53;5052999;28;20060;-66
2023/05/03 10:28:07;;;;;;;11.55;4.22;;;;;;;10.81;64.26;102733.53;5053832;28;20037;-64
2023/05/03 10:30:37;;;;;;;8.50;3.50;;;;;;;10.85;63.89;102734.75;5053252;28;20378;-66
2023/05/03 10:33:11;;;;;;;9.82;3.80;;;;;;;10.92;62.43;102739.31;5053110;28;20045;-65
2023/05/03 10:35:40;;;;;;;9.15;3.83;;;;;;;10.93;62.58;102730.09;5052828;28;20080;-64
2023/05/03 10:38:20;;;;;;;13.88;4.22;;;;;;;10.98;63.78;102744.72;5061692;28;20049;-65
2023/05/03 10:40:48;;;;;;;10.60;4.20;;;;;;;11.08;63.56;102750.47;5073975;28;20074;-65
2023/05/03 10:43:34;;;;;;;13.48;3.85;;;;;;;11.07;63.39;102732.47;5052407;28;20501;-64
2023/05/03 10:46:06;;;;;;;9.40;3.80;;;;;;;11.08;62.82;102739.56;5054264;28;20477;-64
2023/05/03 10:48:34;;;;;;;9.05;3.45;;;;;;;11.08;62.58;102736.03;5060678;28;20044;-63
2023/05/03 10:51:35;;;;;;;11.25;3.50;;;;;;;11.17;62.87;102747.50;5072612;28;20098;-63
2023/05/03 10:54:04;;;;;;;8.77;3.83;;;;;;;11.18;60.58;102740.97;5042763;28;20485;-63
2023/05/03 10:56:31;;;;;;;7.90;3.55;;;;;;;11.12;60.97;102736.41;5053885;28;20128;-65
2023/05/03 10:58:59;;;;;;;9.05;3.92;;;;;;;11.14;61.87;102728.84;5053041;28;20110;-64
2023/05/03 11:01:27;;;;;;;7.95;3.55;;;;;;;11.22;60.30;102732.09;5036492;28;20052;-65
2023/05/03 11:04:07;;;;;;;7.65;3.50;;;;;;;11.25;60.88;102730.81;5033939;28;20076;-66
2023/05/03 11:06:37;;;;;;;9.23;3.50;;;;;;;11.28;60.67;102723.03;5052359;28;20047;-63
2023/05/03 11:09:06;;;;;;;7.68;3.58;;;;;;;11.31;59.65;102721.75;5054746;28;20107;-64
2023/05/03 11:11:36;;;;;;;7.65;3.05;;;;;;;11.38;61.10;102722.50;5052703;28;20076;-63
2023/05/03 11:14:05;;;;;;;9.98;3.97;;;;;;;11.47;61.86;102721.16;5052429;28;20056;-64
2023/05/03 11:16:33;;;;;;;14.43;4.50;;;;;;;11.55;61.38;102716.44;5052507;28;20123;-64
2023/05/03 11:19:02;;;;;;;14.98;4.18;;;;;;;11.59;64.75;102706.72;5043754;28;20063;-63
2023/05/03 11:21:30;;;;;;;8.43;3.67;;;;;;;11.52;61.57;102707.66;5053615;28;20053;-63
2023/05/03 11:23:59;;;;;;;7.53;3.78;;;;;;;11.53;61.52;102697.56;5052549;28;20045;-64
2023/05/03 11:26:27;;;;;;;11.98;4.13;;;;;;;11.61;62.19;102694.50;5036501;28;20563;-64
2023/05/03 11:28:55;;;;;;;11.30;3.92;;;;;;;11.63;62.25;102700.56;5053389;28;20053;-65
2023/05/03 11:31:22;;;;;;;7.93;3.80;;;;;;;11.63;62.67;102692.38;5054198;28;20045;-65
2023/05/03 11:33:50;;;;;;;9.18;3.85;;;;;;;11.70;62.71;102695.88;5052815;28;20091;-65
2023/05/03 11:36:18;;;;;;;11.02;4.18;;;;;;;11.77;61.78;102692.22;5053355;28;20052;-66
2023/05/03 11:38:46;;;;;;;10.70;4.47;;;;;;;11.80;62.48;102689.84;5040527;28;20053;-65
2023/05/03 11:41:16;;;;;;;10.38;3.85;;;;;;;11.84;61.47;102682.88;5073284;28;20056;-65
2023/05/03 11:43:48;;;;;;;11.57;3.85;;;;;;;11.85;64.28;102676.34;5064310;28;20076;-65